Welcome to PeakWeatherEye – providing real time road and weather conditions for high passes within the Peak District..

Weather-Alerts

A57 Snake Road A628 Woodhead Road A53 Leek Road
A537 Cat Road A5004 Long Hill
A54 Congleton A6 Manchester Road A515 Ashbourne
A623 A624 Report Conditions

 

ℹ️ Percentages given are of normal (100%) flow speed
Out of Macclesfield
Walker Barn
Walker Barn to Cat
Cat to Buxton
Into Buxton

 

ℹ️ Traffic flow speeds
A523 Macc to Poynton
A523 Macc South

 

ℹ️ Regularly Updated Data from network grid

         

        ℹ️ From routes within a 10 mile radius of the A537
                        ℹ️ The A537 Cat and Fiddle is a 12 mile stretch of road that passes from Macclesfield to Buxton. It’s high altitude throughout (avg. elevation of 450m) means it is subject to lots of harsh weather. Traffic feeds are updated automatically using real time road data. Manual traffic updates will be added in the case of events which go undetected by these systems.
                        ℹ️ Got a report to help other road users? Fill in this quick form and we’ll add it to this page

                        Time. Apparent Temperature Rain Cloud Dir Avg. Wind Gust. Wind Snow Accum. Chance of settle. Freezing height(beta) Dew Point Severe Weather
                        Mon 14th 05:00 14.2°C 0.0 mm 11% 7 mph 11 mph 0.00 cm % 2,363m 10.8°C
                        06:00 13.9°C 0.0 mm 14% 12 mph 18 mph 0.00 cm % 2,317m 10.9°C
                        07:00 13.8°C 0.0 mm 47% 13 mph 19 mph 0.00 cm % 2,300m 11.0°C
                        08:00 13.1°C 0.0 mm 64% 13 mph 19 mph 0.00 cm % 2,622m 11.1°C
                        09:00 13.2°C 0.0 mm 82% 18 mph 26 mph 0.00 cm % 2,648m 11.2°C
                        10:00 12.2°C 0.0 mm 100% 16 mph 24 mph 0.00 cm % 2,438m 10.8°C
                        11:00 12.2°C 0.0 mm 100% 16 mph 24 mph 0.00 cm % 2,029m 9.8°C
                        12:00 11.9°C 0.0 mm 100% 15 mph 22 mph 0.00 cm % 1,990m 8.7°C
                        13:00 12.6°C 0.0 mm 100% 15 mph 22 mph 0.00 cm % 1,676m 7.8°C
                        14:00 14.0°C 0.0 mm 100% 17 mph 26 mph 0.00 cm % 1,395m 6.6°C
                        15:00 13.3°C 0.0 mm 100% 17 mph 26 mph 0.00 cm % 1,334m 4.7°C
                        16:00 12.6°C 0.0 mm 100% 16 mph 24 mph 0.00 cm % 1,255m 5.0°C
                        17:00 11.1°C 0.0 mm 100% 14 mph 21 mph 0.00 cm % 1,107m 4.5°C
                        18:00 10.9°C 0.0 mm 100% 12 mph 17 mph 0.00 cm % 1,453m 5.1°C
                        19:00 10.3°C 0.0 mm 100% 11 mph 16 mph 0.00 cm % 1,373m 4.9°C
                        20:00 9.9°C 0.0 mm 100% 9 mph 14 mph 0.00 cm % 1,315m 4.5°C
                        21:00 7.8°C 0.0 mm 100% 6 mph 10 mph 0.00 cm % 1,292m 4.2°C
                        22:00 6.8°C 0.0 mm 100% 6 mph 8 mph 0.00 cm % 1,137m 4.4°C
                        23:00 6.2°C 0.0 mm 91% 3 mph 5 mph 0.00 cm % 1,027m 4.0°C
                        Tue 15th 00:00 5.8°C mist/fog in vicinity 0.0 mm 92% 2 mph 3 mph 0.00 cm % 1,166m 3.8°C poor vis, mist
                        01:00 5.7°C mist/fog 0.0 mm 100% 2 mph 3 mph 0.00 cm % 1,142m 3.9°C poor vis, mist
                        02:00 5.5°C mist/fog 0.0 mm 80% 2 mph 4 mph 0.00 cm % 1,102m 4.1°C poor vis, mist
                        03:00 5.4°C mist/fog in vicinity 0.0 mm 87% 3 mph 5 mph 0.00 cm % 1,078m 4.2°C poor vis, mist
                        04:00 5.2°C mist/fog 0.0 mm 90% 2 mph 3 mph 0.00 cm % 1,048m 4.0°C poor vis, mist
                        05:00 6.6°C mist/fog 0.0 mm 92% 1 mph 2 mph 0.00 cm % 1,322m 5.4°C poor vis, mist
                        06:00 8.5°C mist/fog in vicinity 0.0 mm 93% 3 mph 4 mph 0.00 cm % 1,420m 5.9°C poor vis, mist
                        07:00 9.7°C mist/fog in vicinity 0.0 mm 100% 3 mph 4 mph 0.00 cm % 1,619m 5.7°C poor vis, mist
                        08:00 11.1°C 0.0 mm 100% 3 mph 5 mph 0.00 cm % 1,473m 5.7°C
                        09:00 12.0°C 0.0 mm 100% 4 mph 5 mph 0.00 cm % 1,197m 5.6°C
                        10:00 13.0°C 0.0 mm 97% 5 mph 8 mph 0.00 cm % 1,297m 5.8°C
                        11:00 13.9°C 0.0 mm 98% 7 mph 11 mph 0.00 cm % 1,394m 6.5°C
                        12:00 14.9°C 0.0 mm 94% 9 mph 13 mph 0.00 cm % 1,490m 7.1°C
                        13:00 15.4°C 0.0 mm 84% 11 mph 16 mph 0.00 cm % 1,544m 7.6°C
                        14:00 15.9°C 0.0 mm 81% 12 mph 17 mph 0.00 cm % 1,588m 7.9°C
                        15:00 16.1°C 0.0 mm 86% 12 mph 18 mph 0.00 cm % 1,607m 8.1°C
                        16:00 16.1°C 0.0 mm 87% 13 mph 19 mph 0.00 cm % 1,607m 8.5°C
                        17:00 15.9°C 0.0 mm 78% 12 mph 18 mph 0.00 cm % 1,586m 9.3°C
                        18:00 15.8°C 0.0 mm 70% 11 mph 16 mph 0.00 cm % 2,110m 10.6°C
                        19:00 14.7°C 0.0 mm 34% 10 mph 16 mph 0.00 cm % 2,452m 10.7°C
                        20:00 13.0°C 0.0 mm 52% 9 mph 14 mph 0.00 cm % 2,169m 10.4°C
                        21:00 11.4°C 0.0 mm 64% 9 mph 14 mph 0.00 cm % 2,276m 9.6°C
                        22:00 10.4°C 0.0 mm 56% 8 mph 13 mph 0.00 cm % 2,074m 8.6°C
                        23:00 9.6°C 0.0 mm 51% 8 mph 12 mph 0.00 cm % 1,910m 7.6°C
                        Wed 16th 00:00 8.7°C 0.0 mm 55% 8 mph 12 mph 0.00 cm % 1,446m 5.9°C
                        01:00 8.2°C 0.0 mm 80% 8 mph 12 mph 0.00 cm % 1,362m 4.4°C
                        02:00 7.6°C 0.0 mm 70% 8 mph 11 mph 0.00 cm % 1,019m 2.8°C
                        03:00 7.3°C 0.0 mm 50% 7 mph 11 mph 0.00 cm % 968m 1.7°C
                        04:00 7.2°C 0.0 mm 62% 7 mph 10 mph 0.00 cm % 721m 0.8°C
                        05:00 8.3°C 0.0 mm 69% 6 mph 10 mph 0.00 cm % 1,112m 2.5°C
                        06:00 10.4°C 0.0 mm 74% 6 mph 9 mph 0.00 cm % 1,383m 4.8°C
                        07:00 12.0°C 0.0 mm 93% 7 mph 11 mph 0.00 cm % 1,197m 5.8°C
                        08:00 13.8°C 0.0 mm 89% 9 mph 13 mph 0.00 cm % 1,841m 8.0°C
                        09:00 15.2°C 0.0 mm 81% 10 mph 16 mph 0.00 cm % 2,023m 9.8°C
                        10:00 16.4°C 0.0 mm 61% 12 mph 18 mph 0.00 cm % 2,181m 10.8°C
                        11:00 17.3°C 0.0 mm 54% 12 mph 17 mph 0.00 cm % 2,308m 11.5°C
                        12:00 17.6°C 0.0 mm 53% 11 mph 17 mph 0.00 cm % 1,764m 11.4°C
                        13:00 18.0°C 0.0 mm 67% 11 mph 16 mph 0.00 cm % 1,798m 11.4°C
                        14:00 17.9°C 0.0 mm 67% 10 mph 15 mph 0.00 cm % 1,794m 11.7°C
                        15:00 17.9°C 0.0 mm 67% 9 mph 14 mph 0.00 cm % 2,390m 12.1°C
                        16:00 17.4°C 0.0 mm 69% 6 mph 9 mph 0.00 cm % 2,325m 12.2°C
                        17:00 17.7°C 0.0 mm 69% 5 mph 7 mph 0.00 cm % 2,353m 12.3°C
                        18:00 17.5°C 0.0 mm 69% 4 mph 7 mph 0.00 cm % 2,330m 12.7°C
                        19:00 16.2°C 0.0 mm 37% 6 mph 8 mph 0.00 cm % 2,706m 13.2°C
                        20:00 13.9°C 0.0 mm 26% 5 mph 8 mph 0.00 cm % 2,774m 12.1°C
                        21:00 12.3°C 0.0 mm 37% 6 mph 10 mph 0.00 cm % 2,460m 11.1°C
                        22:00 11.4°C 0.0 mm 31% 5 mph 7 mph 0.00 cm % 2,278m 10.4°C
                        23:00 11.0°C 0.0 mm 43% 5 mph 7 mph 0.00 cm % 2,196m 10.0°C
                        Thu 17th 00:00 11.4°C 0.0 mm 52% 6 mph 8 mph 0.00 cm % 2,286m 10.4°C
                        01:00 11.0°C mist/fog in vicinity 0.0 mm 100% 5 mph 7 mph 0.00 cm % 2,198m 9.8°C poor vis, mist
                        02:00 11.4°C mist/fog in vicinity 0.0 mm 100% 4 mph 6 mph 0.00 cm % 2,286m 10.0°C poor vis, mist
                        03:00 11.2°C 0.0 mm 100% 6 mph 9 mph 0.00 cm % 2,236m 9.4°C
                        04:00 10.6°C 0.0 mm 100% 6 mph 9 mph 0.00 cm % 2,124m 8.6°C
                        05:00 11.0°C 0.0 mm 100% 6 mph 8 mph 0.00 cm % 2,196m 9.0°C
                        06:00 11.1°C 0.0 mm 100% 5 mph 8 mph 0.00 cm % 1,855m 8.9°C
                        07:00 11.4°C 0.0 mm 100% 5 mph 8 mph 0.00 cm % 1,906m 9.2°C
                        08:00 11.7°C 0.0 mm 100% 6 mph 9 mph 0.00 cm % 1,948m 9.1°C
                        09:00 11.5°C 0.0 mm 100% 8 mph 11 mph 0.00 cm % 1,920m 9.1°C
                        10:00 11.9°C 0.0 mm 100% 7 mph 11 mph 0.00 cm % 1,985m 9.7°C
                        11:00 11.9°C 0.0 mm 100% 6 mph 10 mph 0.00 cm % 2,376m 10.3°C
                        12:00 11.7°C light rain 0.3 mm 100% 7 mph 10 mph 0.00 cm % 2,348m 10.3°C
                        13:00 11.5°C light rain 0.6 mm 100% 7 mph 11 mph 0.00 cm % 2,294m 10.5°C
                        14:00 11.1°C light rain 1.0 mm 100% 8 mph 11 mph 0.00 cm % 2,228m 10.5°C
                        15:00 11.0°C light rain 0.6 mm 100% 8 mph 12 mph 0.00 cm % 2,190m 10.2°C
                        16:00 10.7°C rainfall in vicinity 0.2 mm 100% 8 mph 12 mph 0.00 cm % 2,146m 9.7°C
                        17:00 10.3°C moderate rain 1.7 mm 100% 7 mph 10 mph 0.00 cm % 2,050m 9.5°C
                        18:00 9.9°C moderate rain 4.8 mm 100% 7 mph 10 mph 0.00 cm % 1,982m 9.5°C Surface water
                        19:00 10.1°C moderate rain 2.2 mm 100% 7 mph 10 mph 0.00 cm % 2,022m 9.7°C
                        20:00 10.1°C rainfall in vicinity 0.2 mm 100% 6 mph 9 mph 0.00 cm % 2,028m 9.5°C
                        21:00 9.3°C mist/fog in vicinity 0.0 mm 97% 6 mph 9 mph 0.00 cm % 1,868m 8.7°C poor vis, mist
                        22:00 8.6°C mist/fog in vicinity 0.0 mm 88% 6 mph 9 mph 0.00 cm % 1,720m 7.8°C poor vis, mist
                        23:00 8.8°C mist/fog in vicinity 0.0 mm 90% 6 mph 8 mph 0.00 cm % 1,756m 8.0°C poor vis, mist
                        Fri 18th 00:00 9.1°C 0.0 mm 90% 6 mph 9 mph 0.00 cm % 1,812m 8.1°C
                        01:00 8.8°C 0.0 mm 82% 7 mph 10 mph 0.00 cm % 1,760m 7.6°C
                        02:00 8.3°C 0.0 mm 75% 8 mph 12 mph 0.00 cm % 1,664m 7.1°C
                        03:00 7.8°C 0.0 mm 71% 9 mph 13 mph 0.00 cm % 1,560m 6.6°C
                        04:00 7.6°C 0.0 mm 72% 8 mph 12 mph 0.00 cm % 1,520m 6.6°C
                        Accurate travel and weather information for the Peak District